Time;durP1;ratioP1;P1;durP2;ratioP2;P2;SDS_P1;SDS_P2;PMS_P1;PMS_P2;Temp;Humidity;BMP_temperature;BMP_pressure;BME280_temperature;BME280_humidity;BME280_pressure;Samples;Min_cycle;Max_cycle;Signal;HPM_P1;HPM_P2
2023/03/16 00:01:16;;;;;;;3.33;2.50;;;5.30;99.90;;;;;;5016091;28;20181;-79
2023/03/16 00:03:42;;;;;;;7.55;4.38;;;5.30;99.90;;;;;;5034030;28;20170;-79
2023/03/16 00:06:08;;;;;;;6.83;3.60;;;5.30;99.90;;;;;;5032573;28;20211;-79
2023/03/16 00:08:34;;;;;;;9.00;3.67;;;5.30;99.90;;;;;;5032641;28;20219;-79
2023/03/16 00:11:01;;;;;;;6.93;3.85;;;5.30;99.90;;;;;;5016331;28;20174;-79
2023/03/16 00:13:28;;;;;;;5.07;3.10;;;5.30;99.90;;;;;;5033315;28;20178;-79
2023/03/16 00:15:58;;;;;;;6.55;3.53;;;5.30;99.90;;;;;;5034322;28;20181;-79
2023/03/16 00:18:26;;;;;;;5.28;2.97;;;5.20;99.90;;;;;;5033736;28;20193;-78
2023/03/16 00:20:55;;;;;;;7.40;4.40;;;5.20;99.90;;;;;;5032207;28;20180;-78
2023/03/16 00:23:27;;;;;;;6.82;3.88;;;5.20;99.90;;;;;;5031914;28;20188;-78
2023/03/16 00:25:58;;;;;;;8.05;4.35;;;5.20;99.90;;;;;;4999637;28;20219;-78
2023/03/16 00:28:25;;;;;;;7.95;3.65;;;5.20;99.90;;;;;;5037177;28;20212;-77
2023/03/16 00:30:51;;;;;;;7.75;3.70;;;5.20;99.90;;;;;;5032509;28;20256;-77
2023/03/16 00:33:17;;;;;;;7.50;4.47;;;5.10;99.90;;;;;;5048412;28;20753;-77
2023/03/16 00:35:49;;;;;;;4.30;3.00;;;5.10;99.90;;;;;;5031179;28;21159;-77
2023/03/16 00:38:19;;;;;;;3.90;3.50;;;5.10;99.90;;;;;;5014860;28;20190;-77
2023/03/16 00:40:45;;;;;;;5.70;4.60;;;5.10;99.90;;;;;;5031771;28;20191;-77
2023/03/16 00:43:17;;;;;;;5.90;3.47;;;5.10;99.90;;;;;;5031199;28;20611;-77
2023/03/16 00:45:43;;;;;;;6.28;3.33;;;5.10;99.90;;;;;;5031756;28;20177;-77
2023/03/16 00:48:10;;;;;;;5.65;3.40;;;5.10;99.90;;;;;;5031775;28;20680;-77
2023/03/16 00:50:36;;;;;;;8.23;3.92;;;5.10;99.90;;;;;;5015316;28;20541;-77
2023/03/16 00:53:02;;;;;;;4.30;3.20;;;5.20;99.90;;;;;;5031895;28;20347;-77
2023/03/16 00:55:28;;;;;;;5.77;3.17;;;5.20;99.90;;;;;;5031288;28;20268;-78
2023/03/16 00:57:54;;;;;;;6.17;4.07;;;5.20;99.90;;;;;;5015231;28;20201;-78
2023/03/16 01:00:21;;;;;;;4.10;2.88;;;5.20;99.90;;;;;;5031606;28;20595;-78
2023/03/16 01:02:47;;;;;;;4.63;3.17;;;5.20;99.90;;;;;;5032732;28;20170;-77
2023/03/16 01:05:13;;;;;;;5.67;2.70;;;5.20;99.90;;;;;;5035117;28;20649;-77
2023/03/16 01:07:40;;;;;;;5.07;3.15;;;5.30;99.90;;;;;;5014633;28;20715;-77
2023/03/16 01:10:07;;;;;;;4.63;2.75;;;5.30;99.90;;;;;;5031637;28;20213;-77
2023/03/16 01:12:33;;;;;;;4.00;3.38;;;5.30;99.90;;;;;;5030660;28;20173;-78
2023/03/16 01:14:59;;;;;;;3.30;2.17;;;5.30;99.90;;;;;;4998751;28;20684;-78
2023/03/16 01:17:25;;;;;;;5.07;2.33;;;5.30;99.90;;;;;;5031045;28;20217;-78
2023/03/16 01:19:51;;;;;;;5.70;2.83;;;5.40;99.90;;;;;;5011677;28;20252;-78
2023/03/16 01:22:18;;;;;;;5.07;2.90;;;5.40;99.90;;;;;;5024300;28;20171;-78
2023/03/16 01:24:45;;;;;;;4.60;2.85;;;5.40;99.90;;;;;;5012942;28;20162;-78
2023/03/16 01:27:12;;;;;;;3.25;2.35;;;5.40;99.90;;;;;;5012853;28;20190;-78
2023/03/16 01:29:39;;;;;;;4.07;3.25;;;5.40;99.90;;;;;;5011326;28;20217;-78
2023/03/16 01:32:06;;;;;;;10.32;3.72;;;5.40;99.90;;;;;;5011330;28;20213;-78
2023/03/16 01:34:32;;;;;;;5.35;3.10;;;5.40;99.90;;;;;;5012379;28;20166;-78
2023/03/16 01:36:59;;;;;;;5.93;3.03;;;5.40;99.90;;;;;;5031376;28;20198;-78
2023/03/16 01:39:36;;;;;;;5.47;3.50;;;5.50;99.90;;;;;;4999612;28;20173;-78
2023/03/16 01:42:02;;;;;;;5.73;3.60;;;5.50;99.90;;;;;;5035366;28;20190;-79
2023/03/16 01:44:31;;;;;;;3.67;2.25;;;5.50;99.90;;;;;;4998093;28;20589;-78
2023/03/16 01:47:01;;;;;;;4.47;2.20;;;5.40;99.90;;;;;;5014631;28;20288;-78
2023/03/16 01:49:27;;;;;;;5.97;2.90;;;5.50;99.90;;;;;;5013407;28;20792;-78
2023/03/16 01:51:53;;;;;;;5.45;3.47;;;5.50;99.90;;;;;;5013778;28;20189;-78
2023/03/16 01:54:24;;;;;;;5.13;2.80;;;5.40;99.90;;;;;;5030887;28;20590;-78
2023/03/16 01:57:05;;;;;;;4.78;2.90;;;5.40;99.90;;;;;;5030571;28;20201;-78
2023/03/16 01:59:42;;;;;;;5.75;3.17;;;5.30;99.90;;;;;;4998271;28;20316;-78
2023/03/16 02:02:09;;;;;;;9.70;3.83;;;5.40;99.90;;;;;;5029180;28;20196;-78
2023/03/16 02:05:03;;;;;;;4.32;3.00;;;5.30;99.90;;;;;;5031076;28;20227;-78
2023/03/16 02:07:33;;;;;;;4.40;2.45;;;5.30;99.90;;;;;;4997617;28;20192;-78
2023/03/16 02:10:01;;;;;;;3.17;2.63;;;5.30;99.90;;;;;;5028568;28;20181;-78
2023/03/16 02:12:28;;;;;;;4.95;2.60;;;5.30;99.90;;;;;;5004669;28;20178;-78
2023/03/16 02:14:55;;;;;;;3.75;2.75;;;5.30;99.90;;;;;;5041305;28;20174;-78
2023/03/16 02:17:25;;;;;;;4.73;2.60;;;5.30;99.90;;;;;;4993479;28;20194;-78
2023/03/16 02:20:09;;;;;;;2.88;2.05;;;5.20;99.90;;;;;;5020147;28;20913;-78
2023/03/16 02:22:41;;;;;;;3.05;2.00;;;5.30;99.90;;;;;;5009854;28;20232;-78
2023/03/16 02:25:09;;;;;;;7.18;3.15;;;5.20;99.90;;;;;;5010686;28;20198;-78
2023/03/16 02:27:52;;;;;;;4.72;2.58;;;5.20;99.90;;;;;;4993698;28;20673;-78
2023/03/16 02:30:20;;;;;;;4.55;2.85;;;5.30;99.90;;;;;;5007689;28;20173;-78
2023/03/16 02:33:00;;;;;;;4.95;2.40;;;5.30;99.90;;;;;;5029389;28;20634;-78
2023/03/16 02:35:26;;;;;;;2.92;2.28;;;5.30;99.90;;;;;;5030194;28;20178;-78
2023/03/16 02:37:52;;;;;;;3.40;2.20;;;5.30;99.90;;;;;;5013116;28;20526;-79
2023/03/16 02:40:21;;;;;;;3.92;2.13;;;5.30;99.90;;;;;;5029891;28;21027;-79
2023/03/16 02:43:03;;;;;;;5.55;2.67;;;5.30;99.90;;;;;;5029549;28;20189;-78
2023/03/16 02:45:36;;;;;;;4.13;2.80;;;5.30;99.90;;;;;;5029389;28;20205;-78
2023/03/16 02:48:13;;;;;;;4.10;2.63;;;5.30;99.90;;;;;;5013028;28;20728;-78
2023/03/16 02:50:47;;;;;;;3.78;2.22;;;5.30;99.90;;;;;;5046194;28;20184;-79
2023/03/16 02:53:13;;;;;;;5.95;2.30;;;5.30;99.90;;;;;;5029622;28;20174;-79
2023/03/16 02:55:39;;;;;;;6.60;2.35;;;5.30;99.90;;;;;;5013323;28;20717;-79
2023/03/16 02:58:05;;;;;;;4.97;2.33;;;5.30;99.90;;;;;;5033839;28;20236;-79
2023/03/16 03:00:31;;;;;;;2.87;1.63;;;5.30;99.90;;;;;;5028783;28;20700;-78
2023/03/16 03:02:57;;;;;;;4.28;2.47;;;5.30;99.90;;;;;;5029250;28;20638;-79
2023/03/16 03:05:23;;;;;;;6.43;2.80;;;5.30;99.90;;;;;;5029360;28;20181;-78
2023/03/16 03:07:50;;;;;;;3.10;1.70;;;5.30;99.90;;;;;;5012967;28;20713;-78
2023/03/16 03:10:16;;;;;;;4.40;2.13;;;5.30;99.90;;;;;;5045858;28;20207;-79
2023/03/16 03:12:42;;;;;;;3.30;2.23;;;5.30;99.90;;;;;;5045618;28;20181;-79
2023/03/16 03:15:09;;;;;;;2.40;1.98;;;5.30;99.90;;;;;;5013166;28;20591;-79
2023/03/16 03:18:05;;;;;;;2.85;1.95;;;5.30;99.90;;;;;;5016941;28;20256;-78
2023/03/16 03:20:32;;;;;;;5.18;2.45;;;5.30;99.90;;;;;;4994972;28;20173;-78
2023/03/16 03:22:57;;;;;;;3.15;1.95;;;5.30;99.90;;;;;;5004234;28;20173;-79
2023/03/16 03:25:23;;;;;;;5.63;2.60;;;5.30;99.90;;;;;;5029479;28;20178;-79
2023/03/16 03:27:53;;;;;;;4.47;2.35;;;5.30;99.90;;;;;;5028773;28;20220;-78
2023/03/16 03:30:23;;;;;;;4.90;2.25;;;5.30;99.90;;;;;;5013339;28;20227;-79
2023/03/16 03:32:49;;;;;;;5.53;2.70;;;5.30;99.90;;;;;;5028984;28;20288;-78
2023/03/16 03:35:17;;;;;;;3.00;1.80;;;5.30;99.90;;;;;;5050149;28;20178;-78
2023/03/16 03:37:43;;;;;;;5.07;3.40;;;5.30;99.90;;;;;;5028717;28;20196;-78
2023/03/16 03:40:12;;;;;;;5.65;2.63;;;5.30;99.90;;;;;;5029229;28;20692;-78
2023/03/16 03:42:40;;;;;;;3.40;2.03;;;5.30;99.90;;;;;;5028544;28;20582;-79
2023/03/16 03:45:07;;;;;;;2.20;1.90;;;5.30;99.90;;;;;;5045710;28;20827;-79
2023/03/16 03:47:32;;;;;;;4.88;2.17;;;5.30;99.90;;;;;;5028674;28;20267;-79
2023/03/16 03:49:59;;;;;;;3.15;2.42;;;5.30;99.90;;;;;;5015077;28;20174;-78
2023/03/16 03:52:27;;;;;;;3.70;1.88;;;5.20;99.90;;;;;;5012357;28;20601;-79
2023/03/16 03:54:53;;;;;;;4.20;2.75;;;5.20;99.90;;;;;;5028624;28;20169;-79
2023/03/16 03:57:19;;;;;;;3.70;2.40;;;5.20;99.90;;;;;;5029015;28;20232;-79
2023/03/16 03:59:44;;;;;;;3.47;2.23;;;5.20;99.90;;;;;;4995916;28;20604;-79
2023/03/16 04:02:39;;;;;;;3.30;2.20;;;5.20;99.90;;;;;;5045374;28;20993;-79
2023/03/16 04:05:08;;;;;;;5.25;2.65;;;5.20;99.90;;;;;;5028653;28;20181;-79
2023/03/16 04:07:34;;;;;;;3.10;2.10;;;5.20;99.90;;;;;;5030246;28;20251;-79
2023/03/16 04:10:05;;;;;;;5.72;2.63;;;5.20;99.90;;;;;;5029435;28;20208;-79
2023/03/16 04:12:36;;;;;;;4.85;2.15;;;5.20;99.90;;;;;;5032232;28;20253;-79
2023/03/16 04:15:03;;;;;;;5.17;2.37;;;5.20;99.90;;;;;;5015736;28;20265;-80
2023/03/16 04:17:34;;;;;;;4.82;2.45;;;5.20;99.90;;;;;;5015710;28;20251;-79
2023/03/16 04:20:06;;;;;;;5.25;3.15;;;5.20;99.90;;;;;;5015765;28;20170;-79
2023/03/16 04:22:35;;;;;;;8.98;2.50;;;5.30;99.90;;;;;;4997906;28;20181;-79
2023/03/16 04:25:04;;;;;;;3.15;2.15;;;5.20;99.90;;;;;;5032231;28;20181;-79
2023/03/16 04:27:35;;;;;;;3.88;2.53;;;5.20;99.90;;;;;;5015032;28;20240;-79
2023/03/16 04:30:06;;;;;;;5.72;3.03;;;5.20;99.90;;;;;;5032510;28;20642;-79
2023/03/16 04:32:33;;;;;;;5.15;3.20;;;5.20;99.90;;;;;;5048060;28;20729;-79
2023/03/16 04:34:58;;;;;;;3.45;2.28;;;5.20;99.90;;;;;;5031976;28;20175;-79
2023/03/16 04:37:36;;;;;;;4.25;3.00;;;5.20;99.90;;;;;;5031682;28;20269;-79
2023/03/16 04:40:10;;;;;;;4.72;3.00;;;5.30;99.90;;;;;;5032467;28;20224;-79
2023/03/16 04:42:36;;;;;;;4.35;2.65;;;5.30;99.90;;;;;;5047884;28;20169;-79
2023/03/16 04:45:04;;;;;;;5.68;2.42;;;5.20;99.90;;;;;;5032022;28;20632;-79
2023/03/16 04:47:32;;;;;;;4.80;2.70;;;5.30;99.90;;;;;;5031929;28;20258;-79
2023/03/16 04:50:01;;;;;;;2.60;2.30;;;5.30;99.90;;;;;;5033890;28;20269;-79
2023/03/16 04:52:31;;;;;;;3.55;2.20;;;5.30;99.90;;;;;;5048743;28;20181;-77
2023/03/16 04:55:00;;;;;;;3.35;2.33;;;5.30;99.90;;;;;;5015356;28;20673;-78
2023/03/16 04:57:25;;;;;;;4.63;3.03;;;5.30;99.90;;;;;;5033200;28;20182;-78
2023/03/16 04:59:52;;;;;;;4.03;2.60;;;5.40;99.90;;;;;;5031635;28;20178;-78
2023/03/16 05:02:37;;;;;;;3.33;2.92;;;5.40;99.90;;;;;;5018225;28;20200;-77
2023/03/16 05:05:04;;;;;;;5.88;2.95;;;5.40;99.90;;;;;;5036521;28;20304;-78
2023/03/16 05:07:31;;;;;;;5.63;3.25;;;5.40;99.90;;;;;;5049097;28;20682;-78
2023/03/16 05:09:57;;;;;;;5.18;3.75;;;5.40;99.90;;;;;;5014563;28;20181;-78
2023/03/16 05:12:23;;;;;;;4.73;2.90;;;5.40;99.90;;;;;;5014069;28;20178;-78
2023/03/16 05:14:53;;;;;;;3.40;2.60;;;5.40;99.90;;;;;;5014974;28;20727;-78
2023/03/16 05:17:28;;;;;;;7.85;3.35;;;5.40;99.90;;;;;;5014899;28;20200;-78
2023/03/16 05:19:54;;;;;;;4.63;2.80;;;5.40;99.90;;;;;;5028053;28;20170;-78
2023/03/16 05:22:20;;;;;;;3.10;2.75;;;5.50;99.90;;;;;;5014001;28;20569;-78
2023/03/16 05:25:04;;;;;;;4.13;3.03;;;5.50;99.90;;;;;;5035975;28;20181;-78
2023/03/16 05:27:30;;;;;;;3.95;2.70;;;5.60;99.90;;;;;;5030929;28;20201;-78
2023/03/16 05:30:00;;;;;;;4.63;3.45;;;5.60;99.90;;;;;;5014661;28;20240;-79
2023/03/16 05:32:30;;;;;;;6.15;2.95;;;5.50;99.90;;;;;;5030456;28;20170;-78
2023/03/16 05:34:57;;;;;;;6.30;2.92;;;5.60;99.90;;;;;;5014689;28;20169;-78
2023/03/16 05:37:24;;;;;;;5.53;3.50;;;5.60;99.90;;;;;;5030656;28;20557;-78
2023/03/16 05:39:49;;;;;;;3.80;3.17;;;5.70;99.90;;;;;;5030851;28;20170;-78
2023/03/16 05:42:15;;;;;;;6.27;3.70;;;5.60;99.90;;;;;;5030030;28;20707;-78
2023/03/16 05:44:47;;;;;;;5.35;2.70;;;5.70;99.90;;;;;;5030860;28;20299;-78
2023/03/16 05:47:26;;;;;;;5.20;4.03;;;5.70;99.90;;;;;;5013782;28;20295;-78
2023/03/16 05:49:55;;;;;;;3.90;3.20;;;5.70;99.90;;;;;;5030664;28;20202;-78
2023/03/16 05:52:32;;;;;;;4.30;2.92;;;5.70;99.90;;;;;;5029816;28;20223;-78
2023/03/16 05:55:04;;;;;;;6.82;3.70;;;5.70;99.90;;;;;;5030584;28;20174;-78
2023/03/16 05:57:30;;;;;;;4.25;3.72;;;5.70;99.90;;;;;;5030383;28;20190;-78
2023/03/16 05:59:59;;;;;;;4.18;3.08;;;5.70;99.90;;;;;;5046612;28;20178;-78
2023/03/16 06:02:25;;;;;;;6.07;3.83;;;5.80;99.90;;;;;;5032981;28;20181;-77
2023/03/16 06:04:52;;;;;;;4.75;3.78;;;5.80;99.90;;;;;;5013373;28;20188;-77
2023/03/16 06:07:17;;;;;;;5.33;3.80;;;5.80;99.90;;;;;;5029374;28;20185;-77
2023/03/16 06:09:43;;;;;;;6.72;3.75;;;5.80;99.90;;;;;;4996076;28;20209;-77
2023/03/16 06:12:13;;;;;;;4.53;3.47;;;5.80;99.90;;;;;;5012859;28;20174;-73
2023/03/16 06:14:40;;;;;;;5.30;3.70;;;5.90;99.90;;;;;;5013361;28;20184;-73
2023/03/16 06:17:06;;;;;;;4.45;2.95;;;5.90;99.90;;;;;;5046814;28;20239;-73
2023/03/16 06:19:33;;;;;;;6.65;4.47;;;6.00;99.90;;;;;;5029529;28;20649;-73
2023/03/16 06:22:00;;;;;;;3.40;3.10;;;6.00;99.90;;;;;;5029679;28;20539;-73
2023/03/16 06:24:27;;;;;;;7.00;3.67;;;6.00;99.90;;;;;;5013681;28;20170;-73
2023/03/16 06:26:52;;;;;;;4.17;3.03;;;6.00;99.90;;;;;;5029690;28;20657;-73
2023/03/16 06:29:21;;;;;;;5.43;3.55;;;6.10;99.90;;;;;;5030149;28;20285;-73
2023/03/16 06:31:46;;;;;;;7.30;4.10;;;6.10;99.90;;;;;;5029428;28;20261;-73
2023/03/16 06:34:13;;;;;;;5.22;4.05;;;6.10;99.90;;;;;;5029678;28;20185;-73
2023/03/16 06:36:39;;;;;;;5.43;4.13;;;6.10;99.90;;;;;;5012456;28;20559;-72
2023/03/16 06:39:09;;;;;;;8.45;4.53;;;6.10;99.90;;;;;;5029763;28;20182;-73
2023/03/16 06:41:41;;;;;;;6.45;4.35;;;6.10;99.90;;;;;;5012120;28;20236;-77
2023/03/16 06:44:07;;;;;;;4.57;3.67;;;6.20;99.90;;;;;;5029050;28;20209;-77
2023/03/16 06:46:38;;;;;;;5.82;3.38;;;6.30;99.90;;;;;;5045450;28;20194;-77
2023/03/16 06:49:04;;;;;;;7.17;4.07;;;6.30;99.90;;;;;;5029251;28;20210;-73
2023/03/16 06:51:30;;;;;;;8.35;4.35;;;6.30;99.90;;;;;;5012468;28;20543;-73
2023/03/16 06:53:57;;;;;;;3.70;3.22;;;6.30;99.90;;;;;;5028858;28;20264;-72
2023/03/16 06:56:24;;;;;;;4.80;3.53;;;6.40;99.90;;;;;;5012837;28;20585;-73
2023/03/16 06:58:50;;;;;;;5.15;3.03;;;6.40;99.90;;;;;;5028957;28;20170;-72
2023/03/16 07:01:16;;;;;;;4.82;3.70;;;6.40;99.90;;;;;;5010394;28;20178;-72
2023/03/16 07:03:42;;;;;;;4.90;3.27;;;6.50;99.90;;;;;;5029848;28;20174;-75
2023/03/16 07:06:24;;;;;;;5.65;4.03;;;6.50;99.90;;;;;;5012407;28;20619;-72
2023/03/16 07:08:50;;;;;;;6.20;3.47;;;6.60;99.90;;;;;;5012193;28;20197;-72
2023/03/16 07:11:17;;;;;;;4.22;3.10;;;6.60;99.90;;;;;;5012736;28;20267;-73
2023/03/16 07:13:43;;;;;;;4.30;3.50;;;6.70;99.90;;;;;;5028860;28;20161;-73
2023/03/16 07:16:09;;;;;;;3.25;2.70;;;6.80;99.90;;;;;;5012517;28;20172;-73
2023/03/16 07:18:36;;;;;;;5.50;3.53;;;6.80;99.90;;;;;;5012473;28;20198;-74
2023/03/16 07:21:03;;;;;;;5.13;4.63;;;6.90;99.90;;;;;;5012115;28;20708;-73
2023/03/16 07:23:29;;;;;;;4.60;3.90;;;6.90;99.90;;;;;;5012135;28;20276;-73
2023/03/16 07:26:02;;;;;;;4.57;3.67;;;7.00;99.90;;;;;;5010958;28;20585;-74
2023/03/16 07:28:29;;;;;;;7.65;3.60;;;7.00;99.90;;;;;;5028900;28;20228;-73
2023/03/16 07:30:57;;;;;;;4.78;3.33;;;7.10;99.90;;;;;;5028824;28;20170;-72
2023/03/16 07:33:23;;;;;;;4.80;3.20;;;7.20;99.90;;;;;;5028597;28;20219;-73
2023/03/16 07:35:48;;;;;;;4.53;3.40;;;7.20;99.90;;;;;;5012438;28;20311;-73
2023/03/16 07:38:14;;;;;;;4.80;3.63;;;7.30;99.90;;;;;;5028478;28;20202;-74
2023/03/16 07:40:40;;;;;;;5.60;3.87;;;7.40;99.90;;;;;;5012526;28;20822;-73
2023/03/16 07:43:13;;;;;;;4.53;3.60;;;7.40;99.90;;;;;;5028275;28;20581;-73
2023/03/16 07:45:51;;;;;;;4.55;3.47;;;7.50;99.90;;;;;;4997848;28;20182;-73
2023/03/16 07:48:19;;;;;;;5.50;3.25;;;7.50;99.90;;;;;;5015562;28;20209;-73
2023/03/16 07:50:49;;;;;;;4.55;3.72;;;7.60;99.90;;;;;;5016367;28;20195;-73
2023/03/16 07:53:16;;;;;;;3.92;3.30;;;7.70;99.90;;;;;;5032593;28;20166;-73
2023/03/16 07:55:44;;;;;;;4.10;3.33;;;7.80;99.90;;;;;;5049159;28;20217;-73
2023/03/16 07:58:11;;;;;;;4.85;3.20;;;8.00;99.90;;;;;;5034115;28;20241;-72
2023/03/16 08:00:41;;;;;;;6.15;4.53;;;8.10;99.90;;;;;;5015016;28;20188;-73
2023/03/16 08:03:07;;;;;;;4.40;3.85;;;8.10;99.90;;;;;;5048415;28;20181;-73
2023/03/16 08:05:33;;;;;;;4.88;3.78;;;8.30;99.90;;;;;;5032074;28;20235;-73
2023/03/16 08:08:04;;;;;;;5.90;3.72;;;8.40;99.90;;;;;;5015943;28;20209;-73
2023/03/16 08:10:32;;;;;;;4.85;3.60;;;8.30;99.90;;;;;;5032280;28;20182;-73
2023/03/16 08:13:09;;;;;;;4.85;3.70;;;8.40;99.90;;;;;;5015047;28;20180;-73
2023/03/16 08:15:41;;;;;;;7.40;4.00;;;8.40;99.90;;;;;;5032383;28;20173;-73
2023/03/16 08:18:12;;;;;;;9.50;4.78;;;8.40;99.90;;;;;;5031604;28;20309;-73
2023/03/16 08:20:38;;;;;;;4.90;3.87;;;8.50;99.90;;;;;;5031947;28;20185;-73
2023/03/16 08:23:04;;;;;;;5.50;3.43;;;8.60;99.90;;;;;;5031389;28;20626;-74
2023/03/16 08:25:37;;;;;;;4.82;3.00;;;8.70;99.90;;;;;;5032214;28;20178;-74
2023/03/16 08:28:09;;;;;;;6.22;3.25;;;8.80;99.90;;;;;;5015510;28;20758;-73
2023/03/16 08:30:42;;;;;;;4.90;3.50;;;8.90;99.90;;;;;;5015505;28;20205;-73
2023/03/16 08:33:19;;;;;;;3.78;3.17;;;8.90;99.90;;;;;;5031891;28;20205;-73
2023/03/16 08:35:46;;;;;;;4.53;3.63;;;8.90;99.90;;;;;;5015187;28;20260;-74
2023/03/16 08:38:14;;;;;;;6.47;4.20;;;9.00;99.90;;;;;;5032030;28;20214;-74
2023/03/16 08:40:46;;;;;;;5.07;3.20;;;8.90;99.90;;;;;;5031555;28;20640;-73
2023/03/16 08:43:13;;;;;;;4.40;3.20;;;9.20;99.90;;;;;;5015074;28;20181;-73
2023/03/16 08:45:41;;;;;;;5.90;3.95;;;9.30;99.90;;;;;;5015023;28;20181;-73
2023/03/16 08:48:11;;;;;;;4.93;3.72;;;9.40;99.90;;;;;;5031447;28;20201;-73
2023/03/16 08:50:40;;;;;;;3.88;2.92;;;9.40;99.90;;;;;;5031779;28;20169;-73
2023/03/16 08:53:06;;;;;;;3.90;3.50;;;9.40;99.90;;;;;;5032308;28;20170;-72
2023/03/16 08:55:32;;;;;;;7.65;3.63;;;9.40;99.90;;;;;;5033303;28;20162;-72
2023/03/16 08:57:58;;;;;;;5.93;4.38;;;9.30;99.90;;;;;;5031523;28;20198;-72
2023/03/16 09:00:24;;;;;;;5.53;4.22;;;9.30;99.90;;;;;;5048169;28;20197;-73
2023/03/16 09:02:50;;;;;;;4.13;3.30;;;9.20;99.90;;;;;;5030782;28;20211;-73
2023/03/16 09:05:17;;;;;;;5.47;2.83;;;9.20;99.90;;;;;;5015008;28;20170;-73
2023/03/16 09:07:42;;;;;;;5.95;4.60;;;9.30;99.90;;;;;;5047835;28;20201;-72
2023/03/16 09:10:14;;;;;;;7.32;4.38;;;9.20;99.90;;;;;;5032171;28;20174;-73
2023/03/16 09:12:42;;;;;;;4.65;3.58;;;9.30;99.90;;;;;;5030823;28;20173;-72
2023/03/16 09:15:10;;;;;;;4.80;4.30;;;9.30;99.90;;;;;;5030834;28;20253;-72
2023/03/16 09:17:38;;;;;;;4.70;3.58;;;9.20;99.90;;;;;;5032145;28;20193;-73
2023/03/16 09:20:08;;;;;;;6.55;4.38;;;9.30;99.90;;;;;;5026014;28;20174;-72
2023/03/16 09:22:34;;;;;;;6.43;3.80;;;9.30;99.90;;;;;;5031658;28;20223;-73
2023/03/16 09:25:00;;;;;;;5.65;4.28;;;9.20;99.90;;;;;;5032259;28;20566;-72
2023/03/16 09:27:26;;;;;;;6.95;4.10;;;9.30;99.90;;;;;;5031713;28;20186;-72
2023/03/16 09:29:55;;;;;;;5.70;4.10;;;9.30;99.90;;;;;;5030821;28;20470;-73
2023/03/16 09:32:21;;;;;;;4.13;3.50;;;9.50;99.90;;;;;;5031350;28;20582;-73
2023/03/16 09:34:47;;;;;;;3.83;3.45;;;9.60;99.90;;;;;;5032052;28;20174;-72
2023/03/16 09:37:13;;;;;;;3.87;2.80;;;9.80;99.90;;;;;;5031687;28;20232;-72
2023/03/16 09:39:39;;;;;;;6.88;4.30;;;10.10;99.90;;;;;;5030402;28;20683;-73
2023/03/16 09:42:33;;;;;;;6.00;3.87;;;10.20;99.90;;;;;;5030383;28;20264;-73
2023/03/16 09:45:25;;;;;;;5.25;3.88;;;10.30;99.90;;;;;;5030295;28;20177;-73
2023/03/16 09:47:59;;;;;;;5.32;4.25;;;10.30;99.10;;;;;;5030349;28;20210;-73
2023/03/16 09:50:33;;;;;;;9.25;4.93;;;10.40;99.80;;;;;;5030128;28;20280;-73
2023/03/16 09:53:17;;;;;;;5.10;3.45;;;10.30;99.90;;;;;;5031249;28;20873;-73
2023/03/16 09:59:21;;;;;;;5.75;4.53;;;10.50;99.90;;;;;;5047099;28;20630;-72
2023/03/16 10:05:05;;;;;;;5.80;4.80;;;10.40;99.80;;;;;;5030279;28;20216;-72
2023/03/16 10:07:57;;;;;;;5.88;4.38;;;10.30;99.90;;;;;;5046477;28;20259;-72
2023/03/16 10:11:00;;;;;;;5.13;3.83;;;10.30;99.30;;;;;;5030216;28;20180;-73
2023/03/16 10:13:45;;;;;;;4.80;4.10;;;10.20;99.80;;;;;;5029032;28;20165;-73
2023/03/16 10:16:29;;;;;;;6.13;3.58;;;10.10;99.10;;;;;;5031394;28;20166;-73
2023/03/16 10:19:01;;;;;;;5.00;3.67;;;10.00;98.80;;;;;;5029718;28;20181;-73
2023/03/16 10:21:30;;;;;;;5.28;3.60;;;10.10;99.90;;;;;;5031144;28;20165;-72
2023/03/16 10:24:01;;;;;;;4.10;3.70;;;10.10;99.90;;;;;;5029684;28;20177;-72
2023/03/16 10:26:38;;;;;;;6.05;3.90;;;10.00;98.50;;;;;;5031219;28;20265;-72
2023/03/16 10:29:13;;;;;;;5.20;3.38;;;10.10;99.70;;;;;;5030585;28;20205;-73
2023/03/16 10:31:41;;;;;;;4.65;3.60;;;10.10;98.70;;;;;;5039988;28;20581;-73
2023/03/16 10:34:09;;;;;;;4.18;3.78;;;10.20;99.90;;;;;;4998593;28;20177;-72
2023/03/16 10:36:39;;;;;;;4.45;4.05;;;10.30;99.90;;;;;;5028907;28;20196;-72
2023/03/16 10:39:07;;;;;;;3.78;3.33;;;10.50;99.90;;;;;;5029882;28;20264;-72
2023/03/16 10:41:45;;;;;;;5.45;4.50;;;10.60;99.90;;;;;;5028896;28;20232;-72
2023/03/16 10:44:21;;;;;;;6.38;4.32;;;10.80;99.90;;;;;;5029864;28;20169;-73
2023/03/16 10:46:49;;;;;;;4.95;3.70;;;10.90;99.40;;;;;;5028809;28;20208;-73
2023/03/16 10:49:35;;;;;;;7.80;3.40;;;11.00;99.90;;;;;;5012776;28;20259;-73
2023/03/16 10:52:12;;;;;;;4.82;3.55;;;11.10;99.90;;;;;;5020096;28;20182;-73
2023/03/16 10:54:39;;;;;;;4.93;3.28;;;11.20;99.70;;;;;;5027917;28;20166;-73
2023/03/16 10:57:24;;;;;;;3.70;3.05;;;11.30;99.90;;;;;;5029257;28;20205;-73
2023/03/16 10:59:58;;;;;;;3.53;3.07;;;11.50;99.30;;;;;;5028756;28;20181;-74
2023/03/16 11:02:31;;;;;;;4.07;3.13;;;11.70;99.90;;;;;;5012365;28;20588;-74
2023/03/16 11:04:57;;;;;;;3.73;3.30;;;12.00;99.90;;;;;;5028360;28;21163;-73
2023/03/16 11:07:24;;;;;;;7.83;3.87;;;12.20;99.90;;;;;;5028640;28;20616;-73
2023/03/16 11:09:51;;;;;;;6.13;4.00;;;12.40;99.80;;;;;;5028235;28;20284;-71
2023/03/16 11:12:27;;;;;;;8.30;5.10;;;12.50;98.30;;;;;;5028494;28;20683;-71
2023/03/16 11:14:54;;;;;;;5.30;3.43;;;12.60;96.00;;;;;;5027977;28;20587;-71
2023/03/16 11:17:35;;;;;;;6.53;3.87;;;12.70;96.70;;;;;;5011523;28;20604;-71
2023/03/16 11:20:11;;;;;;;4.87;3.67;;;12.80;97.20;;;;;;5022001;28;20655;-72
2023/03/16 11:22:38;;;;;;;3.60;3.23;;;12.90;96.10;;;;;;5014050;28;20599;-72
2023/03/16 11:25:19;;;;;;;3.83;3.43;;;13.00;97.30;;;;;;5034050;28;20579;-72
2023/03/16 11:27:58;;;;;;;3.80;2.70;;;13.10;95.20;;;;;;5033054;28;20604;-72
2023/03/16 11:30:38;;;;;;;4.30;3.27;;;13.50;99.10;;;;;;5034014;28;20954;-72
2023/03/16 11:33:09;;;;;;;3.60;2.30;;;13.70;93.80;;;;;;5048291;28;21081;-73
2023/03/16 11:35:35;;;;;;;4.93;3.00;;;14.20;95.40;;;;;;5032486;28;20587;-73
2023/03/16 11:38:10;;;;;;;3.60;2.67;;;14.60;93.60;;;;;;5015616;28;21203;-73
2023/03/16 11:41:03;;;;;;;4.87;2.37;;;14.60;90.90;;;;;;5031889;28;20169;-72
2023/03/16 11:43:50;;;;;;;5.53;2.77;;;14.50;86.40;;;;;;5033289;28;20575;-72
2023/03/16 11:46:21;;;;;;;3.27;2.10;;;14.70;90.20;;;;;;5033616;28;20675;-70
2023/03/16 11:49:08;;;;;;;3.27;2.80;;;14.80;92.30;;;;;;5031852;28;20639;-71
2023/03/16 11:51:52;;;;;;;5.83;2.77;;;14.90;91.00;;;;;;5015018;28;20580;-71
2023/03/16 11:54:47;;;;;;;4.30;3.30;;;14.80;90.20;;;;;;5033504;28;20925;-78
2023/03/16 11:57:50;;;;;;;5.80;2.63;;;14.70;84.80;;;;;;5015646;28;20616;-78
2023/03/16 12:00:25;;;;;;;4.40;2.67;;;14.80;88.80;;;;;;5049000;28;20630;-79
2023/03/16 12:03:09;;;;;;;3.90;2.43;;;14.90;90.40;;;;;;5031160;28;20583;-79
2023/03/16 12:06:00;;;;;;;3.73;2.77;;;15.10;90.90;;;;;;5032248;28;20572;-79
2023/03/16 12:08:26;;;;;;;5.40;3.17;;;15.20;83.10;;;;;;5032712;28;20620;-79
2023/03/16 12:11:03;;;;;;;3.10;2.57;;;15.30;88.70;;;;;;5015326;28;21386;-79
2023/03/16 12:13:53;;;;;;;4.80;2.60;;;15.20;83.20;;;;;;5032966;28;20174;-78
2023/03/16 12:16:45;;;;;;;3.13;2.17;;;15.20;84.30;;;;;;5012174;28;20589;-78
2023/03/16 12:19:38;;;;;;;2.87;1.63;;;15.20;86.00;;;;;;5013091;28;20700;-78
2023/03/16 12:22:39;;;;;;;3.77;2.27;;;15.10;87.10;;;;;;5032825;28;20592;-78
2023/03/16 12:25:16;;;;;;;4.20;2.07;;;15.10;81.80;;;;;;5023396;28;20600;-78
2023/03/16 12:27:44;;;;;;;7.10;2.27;;;15.30;86.30;;;;;;5031331;28;20623;-78
2023/03/16 12:30:34;;;;;;;6.40;2.67;;;15.30;87.30;;;;;;5032860;28;20975;-78
2023/03/16 12:33:25;;;;;;;4.63;1.90;;;15.20;83.80;;;;;;5012588;28;21037;-77
2023/03/16 12:35:58;;;;;;;3.50;1.73;;;15.10;85.30;;;;;;5031452;28;20623;-78
2023/03/16 12:38:52;;;;;;;5.77;3.17;;;15.00;86.30;;;;;;5030482;28;20624;-78
2023/03/16 12:41:46;;;;;;;3.07;1.80;;;14.50;78.10;;;;;;5032431;28;20568;-78
2023/03/16 12:44:25;;;;;;;3.20;1.57;;;14.40;80.60;;;;;;5024445;28;21132;-77
2023/03/16 12:47:27;;;;;;;4.03;1.93;;;14.40;84.60;;;;;;5031979;28;20623;-77
2023/03/16 12:49:55;;;;;;;3.40;2.50;;;14.30;85.60;;;;;;5007875;28;20670;-77
2023/03/16 12:52:21;;;;;;;3.77;1.60;;;14.20;82.90;;;;;;5030990;28;20604;-77
2023/03/16 12:54:52;;;;;;;2.70;1.60;;;14.40;85.80;;;;;;5032024;28;21243;-76
2023/03/16 12:57:22;;;;;;;5.50;2.00;;;14.30;85.10;;;;;;5032082;28;21160;-77
2023/03/16 12:59:54;;;;;;;3.50;1.83;;;14.20;84.20;;;;;;5030795;28;20617;-78
2023/03/16 13:02:33;;;;;;;6.03;1.80;;;14.10;84.60;;;;;;5013811;28;20967;-78
2023/03/16 13:05:06;;;;;;;3.03;1.70;;;14.20;86.90;;;;;;5030791;28;20580;-78
2023/03/16 13:07:32;;;;;;;5.00;1.73;;;14.20;86.00;;;;;;5013715;28;21013;-78
2023/03/16 13:10:11;;;;;;;3.10;2.27;;;14.10;85.20;;;;;;5013890;28;20640;-78
2023/03/16 13:12:40;;;;;;;5.53;1.93;;;14.20;86.00;;;;;;5030758;28;20650;-78
2023/03/16 13:15:22;;;;;;;4.40;1.83;;;14.20;86.30;;;;;;5031930;28;20611;-78
2023/03/16 13:18:15;;;;;;;3.97;2.47;;;14.20;85.50;;;;;;5030115;28;20612;-79
2023/03/16 13:20:47;;;;;;;4.43;1.67;;;14.10;84.30;;;;;;5026114;28;20577;-78
2023/03/16 13:23:17;;;;;;;3.83;1.83;;;14.20;85.50;;;;;;5032388;28;20675;-78